createdAt,value
2018-08-11T00:00:33.689Z,4.33
2018-08-11T00:03:01.978Z,4.27
2018-08-11T00:05:31.385Z,4.97
2018-08-11T00:07:59.688Z,4.03
2018-08-11T00:10:27.957Z,4.23
2018-08-11T00:12:56.249Z,4.40
2018-08-11T00:15:24.551Z,4.87
2018-08-11T00:17:52.874Z,4.60
2018-08-11T00:20:25.568Z,4.27
2018-08-11T00:22:57.196Z,5.00
2018-08-11T00:25:25.564Z,4.60
2018-08-11T00:27:53.911Z,4.80
2018-08-11T00:30:22.426Z,4.40
2018-08-11T00:32:51.885Z,4.27
2018-08-11T00:35:20.220Z,5.07
2018-08-11T00:37:48.485Z,4.57
2018-08-11T00:40:17.960Z,4.60
2018-08-11T00:42:47.440Z,4.53
2018-08-11T00:45:16.488Z,4.40
2018-08-11T00:47:46.865Z,4.50
2018-08-11T00:50:25.204Z,5.47
2018-08-11T00:52:53.872Z,4.33
2018-08-11T00:55:22.185Z,4.53
2018-08-11T00:57:50.483Z,4.33
2018-08-11T01:00:19.813Z,3.77
2018-08-11T01:02:48.144Z,3.80
2018-08-11T01:05:19.977Z,4.30
2018-08-11T01:07:49.298Z,3.80
2018-08-11T01:10:17.843Z,3.60
2018-08-11T01:12:46.766Z,3.87
2018-08-11T01:15:17.492Z,3.40
2018-08-11T01:17:46.657Z,3.47
2018-08-11T01:20:17.325Z,3.30
2018-08-11T01:22:46.533Z,3.43
2018-08-11T01:25:16.789Z,3.43
2018-08-11T01:27:46.162Z,3.27
2018-08-11T01:30:18.509Z,4.00
2018-08-11T01:32:46.858Z,3.03
2018-08-11T01:35:15.202Z,3.10
2018-08-11T01:37:44.477Z,2.53
2018-08-11T01:40:14.679Z,3.10
2018-08-11T01:42:44.201Z,3.20
2018-08-11T01:45:13.360Z,3.40
2018-08-11T01:47:42.192Z,3.47
2018-08-11T01:50:11.680Z,3.13
2018-08-11T01:52:41.296Z,3.00
2018-08-11T01:55:10.653Z,3.30
2018-08-11T01:57:38.958Z,2.90
2018-08-11T02:00:09.302Z,3.50
2018-08-11T02:02:37.784Z,3.60
2018-08-11T02:05:06.493Z,3.50
2018-08-11T02:07:34.808Z,3.57
2018-08-11T02:10:06.980Z,4.20
2018-08-11T02:12:35.320Z,4.27
2018-08-11T02:15:07.052Z,4.23
2018-08-11T02:17:36.481Z,4.20
2018-08-11T02:20:06.763Z,4.03
2018-08-11T02:22:35.094Z,3.70
2018-08-11T02:25:08.316Z,4.80
2018-08-11T02:27:36.716Z,3.80
2018-08-11T02:30:07.142Z,4.10
2018-08-11T02:32:35.499Z,4.40
2018-08-11T02:35:04.049Z,4.60
2018-08-11T02:37:32.362Z,5.07
2018-08-11T02:40:00.711Z,4.73
2018-08-11T02:42:29.013Z,4.20
2018-08-11T02:44:57.361Z,4.03
2018-08-11T02:47:25.634Z,4.23
2018-08-11T02:49:53.949Z,5.07
2018-08-11T02:52:22.277Z,4.20
2018-08-11T02:54:50.541Z,4.00
2018-08-11T02:57:18.841Z,3.77
2018-08-11T02:59:47.168Z,3.70
2018-08-11T03:02:15.508Z,3.33
2018-08-11T03:04:43.801Z,4.60
2018-08-11T03:07:12.632Z,3.93
2018-08-11T03:09:41.967Z,3.80
2018-08-11T03:12:10.358Z,4.23
2018-08-11T03:14:38.660Z,3.97
2018-08-11T03:17:06.970Z,5.00
2018-08-11T03:19:35.287Z,4.27
2018-08-11T03:22:03.654Z,4.50
2018-08-11T03:24:31.977Z,4.60
2018-08-11T03:27:00.281Z,5.37
2018-08-11T03:29:28.574Z,5.47
2018-08-11T03:31:56.935Z,5.50
2018-08-11T03:34:25.353Z,4.93
2018-08-11T03:36:53.719Z,4.97
2018-08-11T03:39:22.013Z,5.60
2018-08-11T03:41:50.360Z,5.47
2018-08-11T03:44:18.711Z,5.40
2018-08-11T03:46:47.013Z,5.00
2018-08-11T03:49:15.374Z,5.27
2018-08-11T03:51:43.642Z,5.63
2018-08-11T03:54:11.982Z,5.47
2018-08-11T03:56:40.293Z,5.00
2018-08-11T03:59:08.618Z,5.90
2018-08-11T04:01:36.917Z,5.97
2018-08-11T04:04:06.342Z,5.93
2018-08-11T04:06:35.637Z,5.57
2018-08-11T04:09:05.944Z,5.40
2018-08-11T04:11:34.243Z,5.30
2018-08-11T04:14:02.570Z,4.80
2018-08-11T04:16:30.873Z,5.47
2018-08-11T04:19:01.145Z,4.70
2018-08-11T04:21:29.409Z,4.87
2018-08-11T04:23:57.705Z,5.13
2018-08-11T04:26:25.957Z,4.27
2018-08-11T04:28:54.241Z,4.60
2018-08-11T04:31:22.505Z,3.80
2018-08-11T04:33:50.870Z,4.00
2018-08-11T04:36:19.153Z,2.90
2018-08-11T04:38:47.446Z,2.47
2018-08-11T04:41:15.700Z,2.50
2018-08-11T04:43:44.197Z,2.50
2018-08-11T04:46:12.512Z,2.20
2018-08-11T04:48:40.788Z,2.60
2018-08-11T04:51:09.137Z,2.80
2018-08-11T04:53:37.408Z,2.20
2018-08-11T04:56:06.795Z,2.40
2018-08-11T04:58:35.049Z,2.60
2018-08-11T05:01:03.382Z,3.57
2018-08-11T05:03:31.660Z,3.00
2018-08-11T05:05:59.944Z,3.23
2018-08-11T05:08:30.718Z,3.60
2018-08-11T05:10:59.029Z,3.10
2018-08-11T05:13:27.311Z,2.90
2018-08-11T05:15:55.610Z,2.93
2018-08-11T05:18:23.861Z,2.30
2018-08-11T05:20:52.147Z,3.93
2018-08-11T05:23:20.684Z,2.70
2018-08-11T05:25:48.961Z,2.40
2018-08-11T05:28:17.241Z,2.40
2018-08-11T05:30:45.555Z,2.13
2018-08-11T05:33:13.867Z,2.30
2018-08-11T05:35:42.145Z,2.23
2018-08-11T05:38:10.450Z,2.20
2018-08-11T05:40:38.708Z,2.33
2018-08-11T05:43:07.035Z,1.73
2018-08-11T05:45:35.295Z,2.20
2018-08-11T05:48:04.977Z,1.57
2018-08-11T05:50:33.316Z,2.00
2018-08-11T05:53:01.563Z,1.90
2018-08-11T05:55:29.961Z,1.83
2018-08-11T05:57:58.259Z,1.23
2018-08-11T06:00:26.537Z,1.43
2018-08-11T06:02:54.824Z,1.33
2018-08-11T06:05:23.130Z,1.47
2018-08-11T06:07:51.449Z,1.50
2018-08-11T06:10:19.767Z,1.30
2018-08-11T06:12:49.073Z,1.47
2018-08-11T06:15:17.416Z,1.23
2018-08-11T06:17:45.727Z,1.97
2018-08-11T06:20:14.997Z,1.10
2018-08-11T06:22:43.327Z,1.50
2018-08-11T06:25:11.870Z,1.10
2018-08-11T06:27:40.493Z,1.70
2018-08-11T06:30:09.819Z,1.87
2018-08-11T06:32:38.456Z,1.80
2018-08-11T06:35:07.472Z,1.80
2018-08-11T06:37:35.908Z,1.60
2018-08-11T06:40:04.889Z,1.57
2018-08-11T06:42:33.177Z,1.40
2018-08-11T06:45:01.477Z,1.70
2018-08-11T06:47:30.937Z,1.80
2018-08-11T06:49:59.326Z,2.17
2018-08-11T06:52:27.660Z,2.50
2018-08-11T06:54:55.964Z,1.73
2018-08-11T06:57:24.209Z,2.57
2018-08-11T06:59:52.493Z,2.00
2018-08-11T07:02:20.765Z,2.07
2018-08-11T07:04:50.130Z,1.73
2018-08-11T07:07:18.380Z,2.20
2018-08-11T07:09:46.661Z,2.10
2018-08-11T07:12:14.948Z,1.87
2018-08-11T07:14:43.241Z,2.10
2018-08-11T07:17:13.522Z,2.43
2018-08-11T07:19:41.833Z,2.40
2018-08-11T07:22:10.097Z,1.97
2018-08-11T07:24:43.120Z,2.43
2018-08-11T07:27:11.373Z,2.83
2018-08-11T07:29:39.630Z,2.37
2018-08-11T07:32:07.924Z,2.90
2018-08-11T07:34:36.224Z,2.17
2018-08-11T07:37:04.584Z,2.53
2018-08-11T07:39:33.007Z,2.20
2018-08-11T07:42:01.321Z,2.10
2018-08-11T07:44:29.924Z,3.40
2018-08-11T07:46:58.214Z,2.43
2018-08-11T07:49:26.488Z,2.20
2018-08-11T07:51:54.841Z,2.70
2018-08-11T07:54:23.106Z,2.50
2018-08-11T07:56:52.491Z,2.70
2018-08-11T07:59:20.781Z,2.40
2018-08-11T08:01:50.156Z,2.60
2018-08-11T08:04:19.466Z,2.77
2018-08-11T08:06:51.680Z,2.20
2018-08-11T08:09:19.961Z,2.00
2018-08-11T08:11:48.269Z,2.70
2018-08-11T08:14:16.545Z,2.83
2018-08-11T08:16:44.863Z,2.70
2018-08-11T08:19:13.142Z,3.03
2018-08-11T08:21:41.417Z,3.10
2018-08-11T08:24:09.704Z,2.90
2018-08-11T08:26:38.138Z,2.83
2018-08-11T08:29:06.388Z,2.83
2018-08-11T08:31:34.944Z,2.90
2018-08-11T08:34:03.236Z,2.80
2018-08-11T08:36:31.540Z,2.70
2018-08-11T08:38:59.849Z,3.37
2018-08-11T08:41:28.117Z,2.53
2018-08-11T08:43:56.517Z,2.57
2018-08-11T08:46:24.796Z,1.93
2018-08-11T08:48:53.288Z,2.30
2018-08-11T08:51:22.573Z,2.60
2018-08-11T08:53:51.885Z,2.50
2018-08-11T08:56:21.160Z,1.97
2018-08-11T08:58:49.473Z,2.83
2018-08-11T09:01:18.915Z,2.40
2018-08-11T09:03:47.218Z,2.80
2018-08-11T09:06:15.660Z,2.47
2018-08-11T09:08:43.960Z,2.30
2018-08-11T09:11:12.248Z,2.80
2018-08-11T09:13:40.553Z,2.90
2018-08-11T09:16:08.837Z,2.90
2018-08-11T09:18:38.252Z,2.10
2018-08-11T09:21:06.548Z,2.23
2018-08-11T09:23:35.912Z,2.00
2018-08-11T09:26:04.241Z,2.25
2018-08-11T09:28:32.510Z,2.63
2018-08-11T09:31:00.845Z,1.20
2018-08-11T09:33:29.234Z,1.60
2018-08-11T09:35:58.637Z,1.87
2018-08-11T09:38:26.923Z,2.10
2018-08-11T09:40:55.261Z,2.60
2018-08-11T09:43:23.560Z,2.30
2018-08-11T09:45:51.875Z,2.40
2018-08-11T09:48:20.149Z,2.00
2018-08-11T09:50:48.521Z,2.20
2018-08-11T09:53:16.862Z,1.70
2018-08-11T09:55:45.173Z,2.23
2018-08-11T09:58:13.484Z,1.73
2018-08-11T10:00:47.212Z,2.67
2018-08-11T10:03:15.533Z,2.17
2018-08-11T10:05:43.889Z,2.40
2018-08-11T10:08:12.237Z,2.40
2018-08-11T10:10:40.638Z,2.10
2018-08-11T10:13:08.934Z,1.50
2018-08-11T10:15:37.253Z,1.43
2018-08-11T10:18:06.002Z,1.43
2018-08-11T10:20:34.249Z,1.10
2018-08-11T10:23:02.628Z,1.20
2018-08-11T10:25:31.111Z,1.03
2018-08-11T10:27:59.513Z,1.30
2018-08-11T10:30:27.793Z,1.40
2018-08-11T10:32:56.160Z,2.07
2018-08-11T10:35:24.517Z,2.30
2018-08-11T10:37:53.966Z,1.70
2018-08-11T10:40:22.328Z,1.77
2018-08-11T10:42:50.589Z,1.37
2018-08-11T10:45:18.897Z,1.07
2018-08-11T10:47:47.557Z,1.20
2018-08-11T10:50:15.820Z,1.30
2018-08-11T10:52:44.327Z,1.30
2018-08-11T10:55:12.641Z,1.57
2018-08-11T10:57:40.924Z,1.30
2018-08-11T11:00:09.202Z,1.40
2018-08-11T11:02:40.646Z,1.23
2018-08-11T11:05:09.669Z,1.27
2018-08-11T11:07:38.018Z,1.30
2018-08-11T11:10:07.976Z,1.30
2018-08-11T11:12:40.169Z,1.53
2018-08-11T11:15:09.151Z,2.40
2018-08-11T11:17:37.529Z,1.67
2018-08-11T11:20:07.445Z,1.53
2018-08-11T11:22:35.753Z,1.73
2018-08-11T11:25:04.521Z,1.20
2018-08-11T11:27:32.849Z,1.20
2018-08-11T11:30:01.169Z,1.23
2018-08-11T11:32:29.721Z,1.20
2018-08-11T11:34:58.101Z,2.00
2018-08-11T11:37:26.465Z,1.20
2018-08-11T11:39:54.806Z,1.53
2018-08-11T11:42:23.077Z,1.93
2018-08-11T11:44:51.415Z,2.07
2018-08-11T11:47:19.734Z,2.10
2018-08-11T11:49:48.061Z,2.10
2018-08-11T11:52:17.471Z,2.40
2018-08-11T11:54:45.807Z,2.03
2018-08-11T11:57:14.097Z,2.20
2018-08-11T11:59:44.496Z,2.03
2018-08-11T12:02:12.863Z,2.43
2018-08-11T12:04:41.153Z,1.70
2018-08-11T12:07:09.438Z,2.30
2018-08-11T12:09:37.687Z,1.90
2018-08-11T12:12:06.379Z,2.00
2018-08-11T12:14:34.656Z,2.13
2018-08-11T12:17:02.941Z,1.40
2018-08-11T12:19:31.248Z,1.30
2018-08-11T12:21:59.528Z,0.70
2018-08-11T12:24:27.784Z,0.97
2018-08-11T12:26:56.070Z,1.10
2018-08-11T12:29:24.345Z,1.30
2018-08-11T12:31:52.662Z,0.93
2018-08-11T12:34:20.929Z,0.90
2018-08-11T12:36:49.246Z,1.30
2018-08-11T12:39:18.522Z,1.60
2018-08-11T12:41:46.846Z,1.53
2018-08-11T12:44:15.118Z,1.00
2018-08-11T12:46:43.409Z,2.77
2018-08-11T12:49:11.689Z,1.90
2018-08-11T12:51:39.988Z,0.90
2018-08-11T12:54:08.269Z,1.23
2018-08-11T12:56:37.675Z,0.80
2018-08-11T12:59:06.097Z,0.97
2018-08-11T13:01:34.408Z,0.97
2018-08-11T13:04:02.724Z,1.10
2018-08-11T13:06:31.029Z,1.27
2018-08-11T13:08:59.344Z,1.10
2018-08-11T13:11:27.757Z,0.87
2018-08-11T13:13:56.052Z,1.00
2018-08-11T13:16:24.313Z,0.97
2018-08-11T13:18:52.601Z,1.10
2018-08-11T13:21:21.967Z,1.00
2018-08-11T13:23:50.265Z,1.30
2018-08-11T13:26:19.617Z,1.70
2018-08-11T13:28:48.917Z,0.90
2018-08-11T13:31:17.192Z,1.77
2018-08-11T13:33:45.494Z,1.70
2018-08-11T13:36:13.844Z,1.83
2018-08-11T13:38:42.223Z,2.57
2018-08-11T13:41:10.444Z,1.63
2018-08-11T13:43:38.901Z,1.37
2018-08-11T13:46:07.174Z,1.20
2018-08-11T13:48:35.501Z,1.07
2018-08-11T13:51:03.769Z,1.40
2018-08-11T13:53:32.107Z,1.33
2018-08-11T13:56:00.428Z,1.73
2018-08-11T13:58:30.073Z,1.13
2018-08-11T14:00:58.466Z,1.30
2018-08-11T14:03:26.750Z,1.20
2018-08-11T14:05:55.064Z,1.20
2018-08-11T14:08:23.341Z,1.13
2018-08-11T14:10:51.643Z,1.13
2018-08-11T14:13:19.930Z,1.20
2018-08-11T14:15:48.257Z,1.43
2018-08-11T14:18:16.547Z,0.83
2018-08-11T14:20:45.196Z,1.30
2018-08-11T14:23:13.526Z,1.47
2018-08-11T14:25:41.890Z,1.10
2018-08-11T14:28:10.102Z,0.83
2018-08-11T14:30:38.396Z,1.00
2018-08-11T14:33:06.668Z,0.90
2018-08-11T14:35:34.970Z,1.20
2018-08-11T14:38:03.285Z,1.37
2018-08-11T14:40:31.581Z,1.07
2018-08-11T14:42:59.865Z,1.03
2018-08-11T14:45:28.193Z,1.30
2018-08-11T14:47:56.522Z,1.30
2018-08-11T14:50:24.776Z,0.97
2018-08-11T14:52:53.065Z,0.77
2018-08-11T14:55:21.380Z,1.00
2018-08-11T14:57:49.709Z,1.27
2018-08-11T15:00:19.021Z,0.70
2018-08-11T15:02:48.323Z,0.90
2018-08-11T15:05:20.786Z,0.70
2018-08-11T15:07:50.097Z,0.93
2018-08-11T15:10:18.378Z,1.03
2018-08-11T15:12:46.703Z,1.60
2018-08-11T15:15:14.977Z,1.50
2018-08-11T15:17:43.532Z,1.33
2018-08-11T15:20:11.852Z,1.23
2018-08-11T15:22:40.593Z,2.17
2018-08-11T15:25:09.667Z,1.23
2018-08-11T15:27:38.021Z,0.87
2018-08-11T15:30:08.154Z,1.00
2018-08-11T15:32:36.468Z,1.73
2018-08-11T15:35:05.393Z,1.17
2018-08-11T15:40:36.081Z,1.30
2018-08-11T15:43:04.349Z,1.33
2018-08-11T15:45:32.597Z,1.40
2018-08-11T15:48:00.869Z,0.90
2018-08-11T15:50:29.121Z,0.70
2018-08-11T15:52:59.432Z,1.10
2018-08-11T15:55:27.845Z,1.10
2018-08-11T15:57:56.133Z,1.20
2018-08-11T16:00:24.434Z,1.37
2018-08-11T16:02:52.733Z,1.60
2018-08-11T16:05:21.017Z,1.27
2018-08-11T16:07:49.272Z,1.30
2018-08-11T16:10:17.568Z,1.40
2018-08-11T16:12:46.837Z,1.40
2018-08-11T16:15:15.169Z,1.03
2018-08-11T16:17:44.803Z,1.10
2018-08-11T16:20:13.073Z,1.30
2018-08-11T16:22:41.352Z,1.23
2018-08-11T16:25:09.637Z,1.00
2018-08-11T16:27:37.883Z,1.30
2018-08-11T16:30:08.513Z,1.77
2018-08-11T16:32:40.209Z,1.87
2018-08-11T16:35:09.177Z,1.57
2018-08-11T16:37:37.934Z,1.10
2018-08-11T16:40:07.116Z,3.13
2018-08-11T16:42:35.576Z,1.63
2018-08-11T16:45:03.950Z,1.50
2018-08-11T16:47:32.207Z,1.20
2018-08-11T16:50:00.502Z,1.60
2018-08-11T16:52:28.797Z,0.97
2018-08-11T16:54:57.134Z,1.03
2018-08-11T16:57:26.514Z,1.00
2018-08-11T16:59:55.882Z,1.17
2018-08-11T17:02:24.206Z,0.83
2018-08-11T17:04:52.465Z,1.47
2018-08-11T17:07:20.764Z,1.27
2018-08-11T17:09:49.030Z,1.20
2018-08-11T17:12:18.411Z,1.33
2018-08-11T17:14:46.770Z,1.63
2018-08-11T17:17:14.945Z,1.83
2018-08-11T17:19:43.461Z,1.30
2018-08-11T17:22:11.752Z,1.80
2018-08-11T17:24:40.009Z,1.37
2018-08-11T17:27:08.370Z,1.30
2018-08-11T17:29:36.632Z,1.75
2018-08-11T17:32:04.921Z,1.50
2018-08-11T17:34:33.177Z,1.80
2018-08-11T17:37:01.490Z,1.70
2018-08-11T17:39:29.773Z,1.13
2018-08-11T17:41:58.045Z,1.27
2018-08-11T17:44:27.297Z,1.20
2018-08-11T17:46:56.617Z,1.20
2018-08-11T17:49:24.889Z,1.67
2018-08-11T17:51:54.177Z,1.70
2018-08-11T17:54:22.476Z,1.57
2018-08-11T17:56:50.733Z,1.40
2018-08-11T17:59:19.108Z,1.20
2018-08-11T18:01:47.366Z,1.27
2018-08-11T18:04:17.762Z,1.53
2018-08-11T18:06:46.032Z,2.80
2018-08-11T18:09:14.293Z,1.77
2018-08-11T18:11:46.007Z,2.27
2018-08-11T18:14:14.273Z,1.50
2018-08-11T18:16:43.669Z,1.47
2018-08-11T18:19:11.956Z,1.63
2018-08-11T18:21:40.216Z,1.27
2018-08-11T18:24:08.526Z,1.33
2018-08-11T18:26:36.885Z,1.40
2018-08-11T18:29:05.424Z,1.20
2018-08-11T18:31:34.005Z,1.90
2018-08-11T18:34:02.277Z,1.17
2018-08-11T18:36:30.549Z,1.10
2018-08-11T18:38:58.833Z,1.87
2018-08-11T18:41:28.213Z,1.40
2018-08-11T18:43:56.510Z,1.50
2018-08-11T18:46:24.788Z,1.33
2018-08-11T18:48:53.039Z,1.23
2018-08-11T18:51:21.318Z,1.40
2018-08-11T18:53:49.574Z,1.23
2018-08-11T18:56:17.899Z,1.00
2018-08-11T18:58:46.161Z,0.90
2018-08-11T19:01:15.436Z,1.53
2018-08-11T19:03:43.685Z,1.77
2018-08-11T19:06:11.980Z,1.53
2018-08-11T19:08:40.223Z,1.10
2018-08-11T19:11:08.530Z,1.53
2018-08-11T19:13:36.782Z,1.43
2018-08-11T19:16:06.065Z,1.23
2018-08-11T19:18:34.304Z,1.60
2018-08-11T19:21:02.600Z,1.40
2018-08-11T19:23:30.921Z,1.50
2018-08-11T19:25:59.282Z,1.90
2018-08-11T19:28:27.490Z,1.30
2018-08-11T19:30:55.769Z,1.93
2018-08-11T19:33:24.049Z,1.80
2018-08-11T19:35:52.437Z,1.30
2018-08-11T19:38:20.777Z,1.17
2018-08-11T19:40:49.017Z,1.80
2018-08-11T19:43:17.302Z,2.00
2018-08-11T19:45:46.684Z,1.87
2018-08-11T19:48:14.910Z,1.30
2018-08-11T19:50:43.157Z,1.43
2018-08-11T19:53:11.485Z,1.80
2018-08-11T19:55:39.749Z,1.50
2018-08-11T19:58:08.037Z,1.63
2018-08-11T20:00:36.295Z,1.87
2018-08-11T20:03:04.630Z,1.60
2018-08-11T20:05:32.876Z,1.60
2018-08-11T20:08:01.219Z,1.67
2018-08-11T20:10:29.676Z,2.00
2018-08-11T20:12:57.989Z,2.00
2018-08-11T20:15:26.249Z,2.33
2018-08-11T20:17:54.526Z,1.60
2018-08-11T20:20:22.789Z,1.47
2018-08-11T20:22:51.097Z,1.63
2018-08-11T20:25:19.433Z,1.57
2018-08-11T20:27:48.717Z,1.60
2018-08-11T20:30:17.557Z,1.50
2018-08-11T20:32:45.801Z,1.63
2018-08-11T20:35:15.153Z,1.70
2018-08-11T20:37:43.552Z,1.90
2018-08-11T20:40:11.893Z,1.30
2018-08-11T20:42:40.226Z,1.50
2018-08-11T20:45:09.576Z,1.60
2018-08-11T20:47:37.853Z,1.77
2018-08-11T20:50:07.924Z,1.83
2018-08-11T20:52:36.185Z,1.90
2018-08-11T20:55:05.673Z,1.87
2018-08-11T20:57:33.941Z,1.50
2018-08-11T21:00:02.241Z,1.50
2018-08-11T21:02:30.488Z,1.67
2018-08-11T21:04:58.773Z,1.57
2018-08-11T21:07:27.012Z,1.70
2018-08-11T21:09:55.304Z,1.30
2018-08-11T21:12:23.629Z,1.67
2018-08-11T21:14:51.918Z,1.23
2018-08-11T21:17:20.348Z,1.80
2018-08-11T21:19:48.681Z,2.30
2018-08-11T21:22:16.945Z,1.60
2018-08-11T21:24:45.274Z,1.50
2018-08-11T21:27:13.525Z,2.00
2018-08-11T21:29:42.884Z,1.60
2018-08-11T21:32:11.160Z,1.57
2018-08-11T21:34:40.429Z,1.53
2018-08-11T21:37:08.738Z,1.90
2018-08-11T21:39:36.997Z,1.90
2018-08-11T21:42:05.433Z,1.57
2018-08-11T21:44:33.715Z,1.70
2018-08-11T21:47:02.016Z,1.70
2018-08-11T21:49:30.306Z,1.43
2018-08-11T21:51:58.589Z,1.80
2018-08-11T21:54:26.833Z,1.77
2018-08-11T21:56:56.181Z,2.00
2018-08-11T21:59:24.425Z,1.60
2018-08-11T22:01:53.000Z,2.17
2018-08-11T22:04:21.278Z,1.93
2018-08-11T22:06:49.572Z,1.60
2018-08-11T22:09:17.812Z,2.23
2018-08-11T22:11:46.109Z,1.97
2018-08-11T22:14:14.382Z,1.67
2018-08-11T22:16:42.632Z,1.60
2018-08-11T22:19:10.913Z,2.20
2018-08-11T22:21:39.196Z,2.53
2018-08-11T22:24:08.544Z,2.17
2018-08-11T22:26:36.833Z,2.00
2018-08-11T22:29:05.280Z,1.93
2018-08-11T22:31:33.556Z,1.93
2018-08-11T22:34:01.866Z,1.67
2018-08-11T22:36:30.173Z,2.03
2018-08-11T22:38:58.565Z,2.43
2018-08-11T22:41:27.745Z,2.00
2018-08-11T22:43:56.426Z,2.00
2018-08-11T22:46:24.681Z,1.80
2018-08-11T22:48:52.967Z,1.50
2018-08-11T22:51:21.226Z,2.03
2018-08-11T22:53:53.743Z,1.80
2018-08-11T22:56:23.123Z,2.10
2018-08-11T22:58:51.440Z,2.00
2018-08-11T23:01:19.741Z,1.77
2018-08-11T23:03:48.064Z,2.40
2018-08-11T23:06:16.321Z,1.90
2018-08-11T23:08:44.593Z,2.13
2018-08-11T23:11:12.986Z,2.27
2018-08-11T23:13:41.276Z,2.90
2018-08-11T23:16:10.670Z,2.00
2018-08-11T23:18:39.019Z,2.10
2018-08-11T23:21:07.301Z,4.13
2018-08-11T23:23:35.568Z,2.17
2018-08-11T23:26:04.952Z,2.30
2018-08-11T23:28:34.196Z,2.40
2018-08-11T23:31:02.472Z,2.33
2018-08-11T23:33:30.853Z,2.43
2018-08-11T23:36:00.192Z,1.87
2018-08-11T23:38:28.471Z,2.50
2018-08-11T23:40:57.878Z,1.90
2018-08-11T23:43:26.166Z,2.10
2018-08-11T23:45:54.453Z,2.13
2018-08-11T23:48:22.708Z,2.73
2018-08-11T23:50:51.119Z,2.00
2018-08-11T23:53:19.402Z,2.33
2018-08-11T23:55:47.688Z,2.80
2018-08-11T23:58:15.939Z,2.40
